Abha, Saudi Arabia
Current Conditions -  °F | °C
As of 4:00 PM on Friday 24 Oct 2014 (Local Time) from OEAB Reporting Station
Few Clouds Few Clouds  
Wind Chill: 77°   Ceiling: Unl
Heat Index: 77°   Visibility: 6mi
Dew Point: 27°   Wind: 7mph
Humidity: 16%   Direction: 40°NE
Pressure: 30.24"   Gusts: NA
Location:  18.23°N, 42.5°E
Report Text: OEAB 241300Z 04006KT 9999 FEW020 25/M03 Q1024 NOSIG
Loading
Personal Weather Stations






























Interactive Weather Map
Tropical Storm Tracking
New forecast layout! Learn more

10-Day Weather Forecast

Advertisements
Track Severe Weather on mobile